sensor_id;sensor_type;location;lat;lon;timestamp;P1;durP1;ratioP1;P2;durP2;ratioP2
46290;SDS011;32023;44.444;26.006;2023-07-22T00:02:43;5.47;;;2.70;;
46290;SDS011;32023;44.444;26.006;2023-07-22T00:05:12;4.88;;;3.40;;
46290;SDS011;32023;44.444;26.006;2023-07-22T00:07:47;7.38;;;3.00;;
46290;SDS011;32023;44.444;26.006;2023-07-22T00:10:28;8.05;;;3.42;;
46290;SDS011;32023;44.444;26.006;2023-07-22T00:12:55;5.40;;;3.03;;
46290;SDS011;32023;44.444;26.006;2023-07-22T00:15:22;8.02;;;3.13;;
46290;SDS011;32023;44.444;26.006;2023-07-22T00:17:50;9.35;;;3.05;;
46290;SDS011;32023;44.444;26.006;2023-07-22T00:20:16;61.63;;;6.30;;
46290;SDS011;32023;44.444;26.006;2023-07-22T00:22:45;47.80;;;6.53;;
46290;SDS011;32023;44.444;26.006;2023-07-22T00:25:20;34.08;;;5.45;;
46290;SDS011;32023;44.444;26.006;2023-07-22T00:27:48;32.53;;;4.43;;
46290;SDS011;32023;44.444;26.006;2023-07-22T00:30:15;11.63;;;3.75;;
46290;SDS011;32023;44.444;26.006;2023-07-22T00:32:41;21.65;;;3.38;;
46290;SDS011;32023;44.444;26.006;2023-07-22T00:35:08;10.57;;;2.10;;
46290;SDS011;32023;44.444;26.006;2023-07-22T00:37:35;6.90;;;2.03;;
46290;SDS011;32023;44.444;26.006;2023-07-22T00:40:04;11.20;;;2.00;;
46290;SDS011;32023;44.444;26.006;2023-07-22T00:42:32;9.98;;;1.63;;
46290;SDS011;32023;44.444;26.006;2023-07-22T00:44:58;13.45;;;2.28;;
46290;SDS011;32023;44.444;26.006;2023-07-22T00:47:24;6.88;;;1.73;;
46290;SDS011;32023;44.444;26.006;2023-07-22T00:49:53;8.95;;;1.80;;
46290;SDS011;32023;44.444;26.006;2023-07-22T00:52:20;6.18;;;1.70;;
46290;SDS011;32023;44.444;26.006;2023-07-22T00:54:50;8.55;;;1.85;;
46290;SDS011;32023;44.444;26.006;2023-07-22T00:57:16;5.57;;;1.80;;
46290;SDS011;32023;44.444;26.006;2023-07-22T00:59:44;9.57;;;2.00;;
46290;SDS011;32023;44.444;26.006;2023-07-22T01:02:10;4.50;;;1.20;;
46290;SDS011;32023;44.444;26.006;2023-07-22T01:04:37;6.00;;;1.85;;
46290;SDS011;32023;44.444;26.006;2023-07-22T01:07:04;12.02;;;2.88;;
46290;SDS011;32023;44.444;26.006;2023-07-22T01:09:44;9.10;;;1.27;;
46290;SDS011;32023;44.444;26.006;2023-07-22T01:12:11;4.22;;;1.52;;
46290;SDS011;32023;44.444;26.006;2023-07-22T01:14:39;7.65;;;1.70;;
46290;SDS011;32023;44.444;26.006;2023-07-22T01:17:10;5.97;;;1.67;;
46290;SDS011;32023;44.444;26.006;2023-07-22T01:19:39;5.10;;;1.30;;
46290;SDS011;32023;44.444;26.006;2023-07-22T01:22:06;4.15;;;1.35;;
46290;SDS011;32023;44.444;26.006;2023-07-22T01:24:36;2.95;;;1.20;;
46290;SDS011;32023;44.444;26.006;2023-07-22T01:27:05;3.28;;;1.25;;
46290;SDS011;32023;44.444;26.006;2023-07-22T01:29:33;3.83;;;1.80;;
46290;SDS011;32023;44.444;26.006;2023-07-22T01:32:00;8.05;;;1.42;;
46290;SDS011;32023;44.444;26.006;2023-07-22T01:34:26;4.10;;;1.05;;
46290;SDS011;32023;44.444;26.006;2023-07-22T01:36:53;5.38;;;0.98;;
46290;SDS011;32023;44.444;26.006;2023-07-22T01:39:19;4.72;;;1.30;;
46290;SDS011;32023;44.444;26.006;2023-07-22T01:41:47;3.55;;;1.02;;
46290;SDS011;32023;44.444;26.006;2023-07-22T01:44:15;2.40;;;0.70;;
46290;SDS011;32023;44.444;26.006;2023-07-22T01:46:42;7.03;;;1.58;;
46290;SDS011;32023;44.444;26.006;2023-07-22T01:49:11;6.55;;;1.73;;
46290;SDS011;32023;44.444;26.006;2023-07-22T01:51:41;3.50;;;1.25;;
46290;SDS011;32023;44.444;26.006;2023-07-22T01:54:10;6.70;;;1.55;;
46290;SDS011;32023;44.444;26.006;2023-07-22T01:56:37;5.03;;;1.52;;
46290;SDS011;32023;44.444;26.006;2023-07-22T01:59:04;6.25;;;1.70;;
46290;SDS011;32023;44.444;26.006;2023-07-22T02:01:39;4.50;;;1.17;;
46290;SDS011;32023;44.444;26.006;2023-07-22T02:04:06;5.80;;;1.23;;
46290;SDS011;32023;44.444;26.006;2023-07-22T02:06:32;5.00;;;1.13;;
46290;SDS011;32023;44.444;26.006;2023-07-22T02:09:02;4.80;;;1.13;;
46290;SDS011;32023;44.444;26.006;2023-07-22T02:11:34;6.25;;;1.40;;
46290;SDS011;32023;44.444;26.006;2023-07-22T02:14:01;2.65;;;1.02;;
46290;SDS011;32023;44.444;26.006;2023-07-22T02:16:31;6.38;;;1.63;;
46290;SDS011;32023;44.444;26.006;2023-07-22T02:18:59;4.63;;;1.60;;
46290;SDS011;32023;44.444;26.006;2023-07-22T02:21:25;4.40;;;1.20;;
46290;SDS011;32023;44.444;26.006;2023-07-22T02:23:53;3.72;;;1.27;;
46290;SDS011;32023;44.444;26.006;2023-07-22T02:26:20;2.88;;;0.80;;
46290;SDS011;32023;44.444;26.006;2023-07-22T02:28:49;1.55;;;0.85;;
46290;SDS011;32023;44.444;26.006;2023-07-22T02:31:15;5.45;;;1.50;;
46290;SDS011;32023;44.444;26.006;2023-07-22T02:33:42;3.63;;;1.20;;
46290;SDS011;32023;44.444;26.006;2023-07-22T02:36:08;3.92;;;1.25;;
46290;SDS011;32023;44.444;26.006;2023-07-22T02:38:35;2.65;;;1.13;;
46290;SDS011;32023;44.444;26.006;2023-07-22T02:41:02;4.55;;;1.45;;
46290;SDS011;32023;44.444;26.006;2023-07-22T02:43:31;2.63;;;1.20;;
46290;SDS011;32023;44.444;26.006;2023-07-22T02:45:59;3.15;;;1.40;;
46290;SDS011;32023;44.444;26.006;2023-07-22T02:48:27;5.28;;;1.60;;
46290;SDS011;32023;44.444;26.006;2023-07-22T02:50:54;3.28;;;1.60;;
46290;SDS011;32023;44.444;26.006;2023-07-22T02:53:20;5.72;;;1.90;;
46290;SDS011;32023;44.444;26.006;2023-07-22T02:55:47;6.68;;;1.55;;
46290;SDS011;32023;44.444;26.006;2023-07-22T02:58:13;8.35;;;2.72;;
46290;SDS011;32023;44.444;26.006;2023-07-22T03:00:39;6.35;;;1.85;;
46290;SDS011;32023;44.444;26.006;2023-07-22T03:03:06;5.45;;;1.75;;
46290;SDS011;32023;44.444;26.006;2023-07-22T03:05:35;5.18;;;1.73;;
46290;SDS011;32023;44.444;26.006;2023-07-22T03:08:01;4.43;;;1.92;;
46290;SDS011;32023;44.444;26.006;2023-07-22T03:10:39;6.53;;;2.80;;
46290;SDS011;32023;44.444;26.006;2023-07-22T03:13:07;4.30;;;2.08;;
46290;SDS011;32023;44.444;26.006;2023-07-22T03:15:36;5.43;;;2.30;;
46290;SDS011;32023;44.444;26.006;2023-07-22T03:18:03;5.85;;;2.30;;
46290;SDS011;32023;44.444;26.006;2023-07-22T03:20:30;4.82;;;2.33;;
46290;SDS011;32023;44.444;26.006;2023-07-22T03:22:56;8.13;;;1.95;;
46290;SDS011;32023;44.444;26.006;2023-07-22T03:25:22;2.75;;;1.80;;
46290;SDS011;32023;44.444;26.006;2023-07-22T03:28:02;6.97;;;2.53;;
46290;SDS011;32023;44.444;26.006;2023-07-22T03:30:33;3.97;;;2.00;;
46290;SDS011;32023;44.444;26.006;2023-07-22T03:32:59;11.65;;;2.47;;
46290;SDS011;32023;44.444;26.006;2023-07-22T03:35:26;6.93;;;2.53;;
46290;SDS011;32023;44.444;26.006;2023-07-22T03:37:55;6.40;;;2.72;;
46290;SDS011;32023;44.444;26.006;2023-07-22T03:40:21;4.72;;;2.45;;
46290;SDS011;32023;44.444;26.006;2023-07-22T03:42:58;6.28;;;2.80;;
46290;SDS011;32023;44.444;26.006;2023-07-22T03:45:24;5.47;;;2.20;;
46290;SDS011;32023;44.444;26.006;2023-07-22T03:47:51;10.05;;;2.50;;
46290;SDS011;32023;44.444;26.006;2023-07-22T03:50:22;6.68;;;2.67;;
46290;SDS011;32023;44.444;26.006;2023-07-22T03:52:49;6.00;;;2.08;;
46290;SDS011;32023;44.444;26.006;2023-07-22T03:55:18;6.20;;;2.67;;
46290;SDS011;32023;44.444;26.006;2023-07-22T03:57:45;4.07;;;2.47;;
46290;SDS011;32023;44.444;26.006;2023-07-22T04:00:41;4.80;;;2.30;;
46290;SDS011;32023;44.444;26.006;2023-07-22T04:03:19;6.53;;;2.58;;
46290;SDS011;32023;44.444;26.006;2023-07-22T04:06:08;7.97;;;3.10;;
46290;SDS011;32023;44.444;26.006;2023-07-22T04:08:39;9.35;;;3.65;;
46290;SDS011;32023;44.444;26.006;2023-07-22T04:13:50;7.15;;;2.80;;
46290;SDS011;32023;44.444;26.006;2023-07-22T04:16:19;6.00;;;2.38;;
46290;SDS011;32023;44.444;26.006;2023-07-22T04:21:45;6.72;;;2.42;;
46290;SDS011;32023;44.444;26.006;2023-07-22T04:26:50;7.72;;;2.58;;
46290;SDS011;32023;44.444;26.006;2023-07-22T04:31:49;10.55;;;2.72;;
46290;SDS011;32023;44.444;26.006;2023-07-22T04:35:01;7.57;;;2.80;;
46290;SDS011;32023;44.444;26.006;2023-07-22T04:40:34;6.93;;;2.92;;
46290;SDS011;32023;44.444;26.006;2023-07-22T04:43:00;7.03;;;3.15;;
46290;SDS011;32023;44.444;26.006;2023-07-22T04:51:21;9.05;;;1.90;;
46290;SDS011;32023;44.444;26.006;2023-07-22T04:53:47;3.83;;;2.03;;
46290;SDS011;32023;44.444;26.006;2023-07-22T04:56:13;3.90;;;2.50;;
46290;SDS011;32023;44.444;26.006;2023-07-22T04:58:52;6.75;;;2.10;;
46290;SDS011;32023;44.444;26.006;2023-07-22T05:01:21;7.07;;;2.20;;
46290;SDS011;32023;44.444;26.006;2023-07-22T05:03:50;4.65;;;2.13;;
46290;SDS011;32023;44.444;26.006;2023-07-22T05:06:20;5.00;;;1.98;;
46290;SDS011;32023;44.444;26.006;2023-07-22T05:08:50;7.13;;;2.45;;
46290;SDS011;32023;44.444;26.006;2023-07-22T05:11:19;3.85;;;2.10;;
46290;SDS011;32023;44.444;26.006;2023-07-22T05:13:48;5.63;;;2.40;;
46290;SDS011;32023;44.444;26.006;2023-07-22T05:16:16;3.78;;;2.13;;
46290;SDS011;32023;44.444;26.006;2023-07-22T05:18:52;4.53;;;1.60;;
46290;SDS011;32023;44.444;26.006;2023-07-22T05:21:35;5.20;;;2.13;;
46290;SDS011;32023;44.444;26.006;2023-07-22T05:24:04;8.50;;;3.30;;
46290;SDS011;32023;44.444;26.006;2023-07-22T05:26:33;7.03;;;2.83;;
46290;SDS011;32023;44.444;26.006;2023-07-22T05:28:59;7.63;;;1.83;;
46290;SDS011;32023;44.444;26.006;2023-07-22T05:31:26;8.60;;;2.15;;
46290;SDS011;32023;44.444;26.006;2023-07-22T05:33:52;5.28;;;2.28;;
46290;SDS011;32023;44.444;26.006;2023-07-22T05:36:18;5.85;;;1.80;;
46290;SDS011;32023;44.444;26.006;2023-07-22T05:38:48;6.20;;;1.75;;
46290;SDS011;32023;44.444;26.006;2023-07-22T05:41:14;3.33;;;1.77;;
46290;SDS011;32023;44.444;26.006;2023-07-22T05:43:41;6.10;;;2.05;;
46290;SDS011;32023;44.444;26.006;2023-07-22T05:46:08;5.80;;;1.50;;
46290;SDS011;32023;44.444;26.006;2023-07-22T05:48:34;5.90;;;1.65;;
46290;SDS011;32023;44.444;26.006;2023-07-22T05:51:00;10.48;;;2.22;;
46290;SDS011;32023;44.444;26.006;2023-07-22T05:53:34;4.85;;;1.73;;
46290;SDS011;32023;44.444;26.006;2023-07-22T05:56:06;3.55;;;1.40;;
46290;SDS011;32023;44.444;26.006;2023-07-22T05:58:34;3.22;;;1.52;;
46290;SDS011;32023;44.444;26.006;2023-07-22T06:03:33;5.40;;;1.77;;
46290;SDS011;32023;44.444;26.006;2023-07-22T06:05:59;5.40;;;1.92;;
46290;SDS011;32023;44.444;26.006;2023-07-22T06:08:25;5.38;;;1.58;;
46290;SDS011;32023;44.444;26.006;2023-07-22T06:11:37;4.82;;;1.65;;
46290;SDS011;32023;44.444;26.006;2023-07-22T06:14:06;6.70;;;2.13;;
46290;SDS011;32023;44.444;26.006;2023-07-22T06:16:40;4.53;;;1.60;;
46290;SDS011;32023;44.444;26.006;2023-07-22T06:19:14;5.43;;;1.92;;
46290;SDS011;32023;44.444;26.006;2023-07-22T06:21:40;5.97;;;1.67;;
46290;SDS011;32023;44.444;26.006;2023-07-22T06:24:10;6.60;;;1.90;;
46290;SDS011;32023;44.444;26.006;2023-07-22T06:26:36;4.47;;;1.90;;
46290;SDS011;32023;44.444;26.006;2023-07-22T06:29:02;3.83;;;1.65;;
46290;SDS011;32023;44.444;26.006;2023-07-22T06:31:30;5.32;;;2.25;;
46290;SDS011;32023;44.444;26.006;2023-07-22T06:34:11;4.23;;;1.87;;
46290;SDS011;32023;44.444;26.006;2023-07-22T06:36:40;4.70;;;1.98;;
46290;SDS011;32023;44.444;26.006;2023-07-22T06:39:07;6.05;;;2.03;;
46290;SDS011;32023;44.444;26.006;2023-07-22T06:41:33;5.32;;;1.80;;
46290;SDS011;32023;44.444;26.006;2023-07-22T06:44:00;4.53;;;1.80;;
46290;SDS011;32023;44.444;26.006;2023-07-22T06:46:28;5.82;;;2.05;;
46290;SDS011;32023;44.444;26.006;2023-07-22T06:48:56;7.45;;;2.22;;
46290;SDS011;32023;44.444;26.006;2023-07-22T06:51:22;3.15;;;1.70;;
46290;SDS011;32023;44.444;26.006;2023-07-22T06:53:49;3.92;;;1.92;;
46290;SDS011;32023;44.444;26.006;2023-07-22T06:56:18;6.90;;;2.20;;
46290;SDS011;32023;44.444;26.006;2023-07-22T06:58:44;6.80;;;1.88;;
46290;SDS011;32023;44.444;26.006;2023-07-22T07:01:12;4.63;;;1.60;;
46290;SDS011;32023;44.444;26.006;2023-07-22T07:03:38;6.22;;;2.17;;
46290;SDS011;32023;44.444;26.006;2023-07-22T07:06:07;8.25;;;1.75;;
46290;SDS011;32023;44.444;26.006;2023-07-22T07:08:33;5.07;;;1.85;;
46290;SDS011;32023;44.444;26.006;2023-07-22T07:11:00;3.47;;;1.42;;
46290;SDS011;32023;44.444;26.006;2023-07-22T07:13:26;4.40;;;1.58;;
46290;SDS011;32023;44.444;26.006;2023-07-22T07:15:54;5.97;;;1.60;;
46290;SDS011;32023;44.444;26.006;2023-07-22T07:18:20;3.00;;;1.30;;
46290;SDS011;32023;44.444;26.006;2023-07-22T07:20:47;3.65;;;1.80;;
46290;SDS011;32023;44.444;26.006;2023-07-22T07:23:16;5.47;;;1.77;;
46290;SDS011;32023;44.444;26.006;2023-07-22T07:25:42;1.88;;;1.30;;
46290;SDS011;32023;44.444;26.006;2023-07-22T07:28:08;3.47;;;1.67;;
46290;SDS011;32023;44.444;26.006;2023-07-22T07:30:39;10.57;;;2.03;;
46290;SDS011;32023;44.444;26.006;2023-07-22T07:33:08;3.28;;;1.60;;
46290;SDS011;32023;44.444;26.006;2023-07-22T07:52:28;5.55;;;1.58;;
46290;SDS011;32023;44.444;26.006;2023-07-22T07:54:54;4.43;;;1.40;;
46290;SDS011;32023;44.444;26.006;2023-07-22T08:00:18;7.15;;;1.75;;
46290;SDS011;32023;44.444;26.006;2023-07-22T08:02:46;4.70;;;1.95;;
46290;SDS011;32023;44.444;26.006;2023-07-22T08:05:12;7.30;;;1.80;;
46290;SDS011;32023;44.444;26.006;2023-07-22T08:07:42;2.97;;;1.48;;
46290;SDS011;32023;44.444;26.006;2023-07-22T08:10:26;9.15;;;2.20;;
46290;SDS011;32023;44.444;26.006;2023-07-22T08:13:20;6.57;;;1.70;;
46290;SDS011;32023;44.444;26.006;2023-07-22T08:16:22;5.03;;;2.08;;
46290;SDS011;32023;44.444;26.006;2023-07-22T08:18:55;4.68;;;1.55;;
46290;SDS011;32023;44.444;26.006;2023-07-22T08:21:24;4.05;;;1.85;;
46290;SDS011;32023;44.444;26.006;2023-07-22T08:23:53;6.35;;;2.20;;
46290;SDS011;32023;44.444;26.006;2023-07-22T08:26:19;11.05;;;2.13;;
46290;SDS011;32023;44.444;26.006;2023-07-22T08:28:47;5.20;;;1.98;;
46290;SDS011;32023;44.444;26.006;2023-07-22T08:31:15;5.88;;;2.22;;
46290;SDS011;32023;44.444;26.006;2023-07-22T08:33:41;2.80;;;1.80;;
46290;SDS011;32023;44.444;26.006;2023-07-22T08:36:08;6.72;;;2.20;;
46290;SDS011;32023;44.444;26.006;2023-07-22T08:38:37;4.45;;;2.50;;
46290;SDS011;32023;44.444;26.006;2023-07-22T08:41:05;4.10;;;1.92;;
46290;SDS011;32023;44.444;26.006;2023-07-22T08:43:31;10.18;;;2.08;;
46290;SDS011;32023;44.444;26.006;2023-07-22T08:46:04;5.30;;;2.28;;
46290;SDS011;32023;44.444;26.006;2023-07-22T08:48:31;5.82;;;2.40;;
46290;SDS011;32023;44.444;26.006;2023-07-22T08:51:18;5.15;;;2.15;;
46290;SDS011;32023;44.444;26.006;2023-07-22T08:53:45;4.15;;;1.80;;
46290;SDS011;32023;44.444;26.006;2023-07-22T08:56:12;6.53;;;1.98;;
46290;SDS011;32023;44.444;26.006;2023-07-22T08:58:41;5.63;;;2.08;;
46290;SDS011;32023;44.444;26.006;2023-07-22T09:01:08;4.35;;;2.30;;
46290;SDS011;32023;44.444;26.006;2023-07-22T09:03:35;5.43;;;2.10;;
46290;SDS011;32023;44.444;26.006;2023-07-22T09:06:04;4.50;;;1.95;;
46290;SDS011;32023;44.444;26.006;2023-07-22T09:08:40;6.05;;;2.30;;
46290;SDS011;32023;44.444;26.006;2023-07-22T09:11:11;5.13;;;2.45;;
46290;SDS011;32023;44.444;26.006;2023-07-22T09:13:38;4.82;;;1.90;;
46290;SDS011;32023;44.444;26.006;2023-07-22T09:16:09;3.80;;;1.60;;
46290;SDS011;32023;44.444;26.006;2023-07-22T09:18:36;6.18;;;2.33;;
46290;SDS011;32023;44.444;26.006;2023-07-22T09:21:03;3.50;;;2.05;;
46290;SDS011;32023;44.444;26.006;2023-07-22T09:23:36;5.18;;;2.63;;
46290;SDS011;32023;44.444;26.006;2023-07-22T09:26:13;5.65;;;2.78;;
46290;SDS011;32023;44.444;26.006;2023-07-22T09:28:53;4.68;;;1.95;;
46290;SDS011;32023;44.444;26.006;2023-07-22T09:31:26;5.75;;;2.38;;
46290;SDS011;32023;44.444;26.006;2023-07-22T09:33:56;7.60;;;2.28;;
46290;SDS011;32023;44.444;26.006;2023-07-22T09:36:56;3.45;;;1.83;;
46290;SDS011;32023;44.444;26.006;2023-07-22T09:39:23;7.05;;;1.83;;
46290;SDS011;32023;44.444;26.006;2023-07-22T09:41:50;5.20;;;1.80;;
46290;SDS011;32023;44.444;26.006;2023-07-22T09:44:18;5.93;;;2.47;;
46290;SDS011;32023;44.444;26.006;2023-07-22T09:46:48;4.10;;;2.08;;
46290;SDS011;32023;44.444;26.006;2023-07-22T09:49:22;5.50;;;1.95;;
46290;SDS011;32023;44.444;26.006;2023-07-22T09:51:50;6.18;;;2.17;;
46290;SDS011;32023;44.444;26.006;2023-07-22T09:54:17;7.20;;;1.88;;
46290;SDS011;32023;44.444;26.006;2023-07-22T09:56:46;6.88;;;2.15;;
46290;SDS011;32023;44.444;26.006;2023-07-22T09:59:19;10.43;;;2.20;;
46290;SDS011;32023;44.444;26.006;2023-07-22T10:01:48;5.18;;;2.10;;
46290;SDS011;32023;44.444;26.006;2023-07-22T10:04:25;3.72;;;1.90;;
46290;SDS011;32023;44.444;26.006;2023-07-22T10:06:57;6.50;;;2.33;;
46290;SDS011;32023;44.444;26.006;2023-07-22T10:09:24;6.40;;;2.53;;
46290;SDS011;32023;44.444;26.006;2023-07-22T10:11:53;11.15;;;2.90;;
46290;SDS011;32023;44.444;26.006;2023-07-22T10:14:22;8.15;;;2.20;;
46290;SDS011;32023;44.444;26.006;2023-07-22T10:16:49;6.22;;;2.30;;
46290;SDS011;32023;44.444;26.006;2023-07-22T10:19:17;5.20;;;2.10;;
46290;SDS011;32023;44.444;26.006;2023-07-22T10:21:45;4.93;;;2.85;;
46290;SDS011;32023;44.444;26.006;2023-07-22T10:24:11;4.65;;;2.30;;
46290;SDS011;32023;44.444;26.006;2023-07-22T10:26:39;7.18;;;2.30;;
46290;SDS011;32023;44.444;26.006;2023-07-22T10:29:06;8.52;;;2.60;;
46290;SDS011;32023;44.444;26.006;2023-07-22T10:31:33;4.72;;;2.08;;
46290;SDS011;32023;44.444;26.006;2023-07-22T10:34:05;4.70;;;2.13;;
46290;SDS011;32023;44.444;26.006;2023-07-22T10:36:33;3.53;;;1.92;;
46290;SDS011;32023;44.444;26.006;2023-07-22T10:39:00;5.75;;;2.95;;
46290;SDS011;32023;44.444;26.006;2023-07-22T10:41:27;4.60;;;2.83;;
46290;SDS011;32023;44.444;26.006;2023-07-22T10:43:54;4.45;;;2.38;;
46290;SDS011;32023;44.444;26.006;2023-07-22T10:46:35;7.35;;;2.35;;
46290;SDS011;32023;44.444;26.006;2023-07-22T10:51:39;4.78;;;2.50;;
46290;SDS011;32023;44.444;26.006;2023-07-22T10:54:12;4.90;;;2.38;;
46290;SDS011;32023;44.444;26.006;2023-07-22T10:56:45;5.78;;;2.30;;
46290;SDS011;32023;44.444;26.006;2023-07-22T10:59:13;7.82;;;2.13;;
46290;SDS011;32023;44.444;26.006;2023-07-22T11:01:40;7.47;;;2.40;;
46290;SDS011;32023;44.444;26.006;2023-07-22T11:12:04;5.10;;;2.22;;
46290;SDS011;32023;44.444;26.006;2023-07-22T11:14:39;5.40;;;2.35;;
46290;SDS011;32023;44.444;26.006;2023-07-22T11:17:15;4.40;;;1.95;;
46290;SDS011;32023;44.444;26.006;2023-07-22T11:19:43;8.02;;;2.20;;
46290;SDS011;32023;44.444;26.006;2023-07-22T11:22:11;7.80;;;2.65;;
46290;SDS011;32023;44.444;26.006;2023-07-22T11:24:38;6.97;;;1.98;;
46290;SDS011;32023;44.444;26.006;2023-07-22T11:27:05;5.00;;;2.40;;
46290;SDS011;32023;44.444;26.006;2023-07-22T11:29:33;4.63;;;1.95;;
46290;SDS011;32023;44.444;26.006;2023-07-22T11:32:00;4.80;;;2.20;;
46290;SDS011;32023;44.444;26.006;2023-07-22T11:34:27;5.40;;;2.10;;
46290;SDS011;32023;44.444;26.006;2023-07-22T11:36:58;4.85;;;2.30;;
46290;SDS011;32023;44.444;26.006;2023-07-22T11:39:27;7.68;;;2.13;;
46290;SDS011;32023;44.444;26.006;2023-07-22T11:42:17;6.38;;;1.92;;
46290;SDS011;32023;44.444;26.006;2023-07-22T11:44:44;6.38;;;2.83;;
46290;SDS011;32023;44.444;26.006;2023-07-22T11:47:11;6.70;;;2.70;;
46290;SDS011;32023;44.444;26.006;2023-07-22T11:49:40;6.82;;;2.35;;
46290;SDS011;32023;44.444;26.006;2023-07-22T11:52:11;6.63;;;2.35;;
46290;SDS011;32023;44.444;26.006;2023-07-22T11:54:46;9.48;;;2.40;;
46290;SDS011;32023;44.444;26.006;2023-07-22T11:59:43;6.85;;;2.15;;
46290;SDS011;32023;44.444;26.006;2023-07-22T12:02:16;9.60;;;2.58;;
46290;SDS011;32023;44.444;26.006;2023-07-22T12:04:56;8.48;;;2.65;;
46290;SDS011;32023;44.444;26.006;2023-07-22T12:07:31;7.35;;;2.35;;
46290;SDS011;32023;44.444;26.006;2023-07-22T12:10:00;8.38;;;2.42;;
46290;SDS011;32023;44.444;26.006;2023-07-22T12:12:35;6.65;;;2.35;;
46290;SDS011;32023;44.444;26.006;2023-07-22T12:15:03;5.97;;;2.70;;
46290;SDS011;32023;44.444;26.006;2023-07-22T12:20:36;8.65;;;2.45;;
46290;SDS011;32023;44.444;26.006;2023-07-22T12:23:08;7.00;;;2.75;;
46290;SDS011;32023;44.444;26.006;2023-07-22T12:25:34;7.57;;;2.60;;
46290;SDS011;32023;44.444;26.006;2023-07-22T12:28:06;4.78;;;2.28;;
46290;SDS011;32023;44.444;26.006;2023-07-22T12:30:34;5.45;;;2.33;;
46290;SDS011;32023;44.444;26.006;2023-07-22T12:33:03;11.13;;;3.17;;
46290;SDS011;32023;44.444;26.006;2023-07-22T12:35:30;8.05;;;2.45;;
46290;SDS011;32023;44.444;26.006;2023-07-22T12:37:56;10.82;;;2.58;;
46290;SDS011;32023;44.444;26.006;2023-07-22T12:40:23;9.77;;;3.05;;
46290;SDS011;32023;44.444;26.006;2023-07-22T12:42:49;4.55;;;2.00;;
46290;SDS011;32023;44.444;26.006;2023-07-22T12:45:15;8.88;;;2.75;;
46290;SDS011;32023;44.444;26.006;2023-07-22T12:47:42;8.57;;;2.22;;
46290;SDS011;32023;44.444;26.006;2023-07-22T12:50:12;8.57;;;2.85;;
46290;SDS011;32023;44.444;26.006;2023-07-22T12:52:39;6.05;;;2.70;;
46290;SDS011;32023;44.444;26.006;2023-07-22T12:55:09;7.40;;;2.33;;
46290;SDS011;32023;44.444;26.006;2023-07-22T12:57:35;5.65;;;2.50;;
46290;SDS011;32023;44.444;26.006;2023-07-22T13:00:07;5.45;;;2.08;;
46290;SDS011;32023;44.444;26.006;2023-07-22T13:02:36;4.78;;;2.33;;
46290;SDS011;32023;44.444;26.006;2023-07-22T13:05:03;5.70;;;2.30;;
46290;SDS011;32023;44.444;26.006;2023-07-22T13:07:31;7.47;;;2.67;;
46290;SDS011;32023;44.444;26.006;2023-07-22T13:10:00;10.15;;;2.67;;
46290;SDS011;32023;44.444;26.006;2023-07-22T13:12:36;7.28;;;2.53;;
46290;SDS011;32023;44.444;26.006;2023-07-22T13:15:06;7.68;;;2.33;;
46290;SDS011;32023;44.444;26.006;2023-07-22T13:17:47;8.70;;;2.60;;
46290;SDS011;32023;44.444;26.006;2023-07-22T13:20:19;9.70;;;3.20;;
46290;SDS011;32023;44.444;26.006;2023-07-22T13:22:45;9.77;;;2.60;;
46290;SDS011;32023;44.444;26.006;2023-07-22T13:25:12;8.70;;;2.58;;
46290;SDS011;32023;44.444;26.006;2023-07-22T13:27:38;6.47;;;2.50;;
46290;SDS011;32023;44.444;26.006;2023-07-22T13:30:08;6.82;;;2.55;;
46290;SDS011;32023;44.444;26.006;2023-07-22T13:32:35;4.78;;;2.30;;
46290;SDS011;32023;44.444;26.006;2023-07-22T13:35:01;7.90;;;2.45;;
46290;SDS011;32023;44.444;26.006;2023-07-22T13:37:36;10.23;;;2.70;;
46290;SDS011;32023;44.444;26.006;2023-07-22T13:40:05;11.90;;;2.10;;
46290;SDS011;32023;44.444;26.006;2023-07-22T13:42:43;8.55;;;2.42;;
46290;SDS011;32023;44.444;26.006;2023-07-22T13:45:19;6.68;;;2.13;;
46290;SDS011;32023;44.444;26.006;2023-07-22T13:47:45;7.55;;;2.35;;
46290;SDS011;32023;44.444;26.006;2023-07-22T13:50:12;11.50;;;2.65;;
46290;SDS011;32023;44.444;26.006;2023-07-22T13:52:43;5.38;;;2.10;;
46290;SDS011;32023;44.444;26.006;2023-07-22T13:55:10;8.27;;;2.50;;
46290;SDS011;32023;44.444;26.006;2023-07-22T13:57:36;4.93;;;2.33;;
46290;SDS011;32023;44.444;26.006;2023-07-22T14:00:05;5.68;;;2.55;;
46290;SDS011;32023;44.444;26.006;2023-07-22T14:02:35;7.78;;;2.40;;
46290;SDS011;32023;44.444;26.006;2023-07-22T14:05:05;9.50;;;2.45;;
46290;SDS011;32023;44.444;26.006;2023-07-22T14:07:40;8.77;;;2.20;;
46290;SDS011;32023;44.444;26.006;2023-07-22T14:10:09;5.40;;;2.15;;
46290;SDS011;32023;44.444;26.006;2023-07-22T14:12:36;13.27;;;2.45;;
46290;SDS011;32023;44.444;26.006;2023-07-22T14:15:05;6.05;;;2.25;;
46290;SDS011;32023;44.444;26.006;2023-07-22T14:17:35;8.05;;;2.63;;
46290;SDS011;32023;44.444;26.006;2023-07-22T14:20:03;6.28;;;2.13;;
46290;SDS011;32023;44.444;26.006;2023-07-22T14:22:39;10.80;;;2.95;;
46290;SDS011;32023;44.444;26.006;2023-07-22T14:25:36;5.18;;;2.13;;
46290;SDS011;32023;44.444;26.006;2023-07-22T14:28:12;7.82;;;2.50;;
46290;SDS011;32023;44.444;26.006;2023-07-22T14:30:41;7.23;;;2.30;;
46290;SDS011;32023;44.444;26.006;2023-07-22T14:33:15;5.65;;;2.67;;
46290;SDS011;32023;44.444;26.006;2023-07-22T14:35:44;6.63;;;2.40;;
46290;SDS011;32023;44.444;26.006;2023-07-22T14:38:15;8.35;;;2.60;;
46290;SDS011;32023;44.444;26.006;2023-07-22T14:40:42;5.85;;;2.30;;
46290;SDS011;32023;44.444;26.006;2023-07-22T14:43:28;9.52;;;2.78;;
46290;SDS011;32023;44.444;26.006;2023-07-22T14:45:57;11.90;;;2.60;;
46290;SDS011;32023;44.444;26.006;2023-07-22T14:48:23;7.55;;;2.20;;
46290;SDS011;32023;44.444;26.006;2023-07-22T14:50:50;5.20;;;2.40;;
46290;SDS011;32023;44.444;26.006;2023-07-22T14:53:16;7.63;;;2.33;;
46290;SDS011;32023;44.444;26.006;2023-07-22T14:55:45;5.30;;;2.00;;
46290;SDS011;32023;44.444;26.006;2023-07-22T14:58:11;12.75;;;2.65;;
46290;SDS011;32023;44.444;26.006;2023-07-22T15:00:41;6.70;;;2.40;;
46290;SDS011;32023;44.444;26.006;2023-07-22T15:03:07;5.47;;;2.38;;
46290;SDS011;32023;44.444;26.006;2023-07-22T15:05:34;6.93;;;3.05;;
46290;SDS011;32023;44.444;26.006;2023-07-22T15:08:03;5.05;;;1.85;;
46290;SDS011;32023;44.444;26.006;2023-07-22T15:10:29;5.57;;;2.00;;
46290;SDS011;32023;44.444;26.006;2023-07-22T15:12:58;5.35;;;2.20;;
46290;SDS011;32023;44.444;26.006;2023-07-22T15:15:25;6.28;;;2.42;;
46290;SDS011;32023;44.444;26.006;2023-07-22T15:17:52;4.32;;;1.85;;
46290;SDS011;32023;44.444;26.006;2023-07-22T15:20:22;7.55;;;2.65;;
46290;SDS011;32023;44.444;26.006;2023-07-22T15:22:48;5.85;;;2.42;;
46290;SDS011;32023;44.444;26.006;2023-07-22T15:25:18;6.80;;;2.17;;
46290;SDS011;32023;44.444;26.006;2023-07-22T15:27:50;4.55;;;2.30;;
46290;SDS011;32023;44.444;26.006;2023-07-22T15:30:16;5.40;;;2.20;;
46290;SDS011;32023;44.444;26.006;2023-07-22T15:32:45;7.63;;;1.95;;
46290;SDS011;32023;44.444;26.006;2023-07-22T15:35:12;9.80;;;2.72;;
46290;SDS011;32023;44.444;26.006;2023-07-22T15:37:39;4.78;;;2.20;;
46290;SDS011;32023;44.444;26.006;2023-07-22T15:40:06;10.77;;;2.50;;
46290;SDS011;32023;44.444;26.006;2023-07-22T15:42:35;6.88;;;2.20;;
46290;SDS011;32023;44.444;26.006;2023-07-22T15:45:04;12.13;;;2.90;;
46290;SDS011;32023;44.444;26.006;2023-07-22T15:47:34;8.63;;;2.17;;